Time;durP1;ratioP1;P1;durP2;ratioP2;P2;SDS_P1;SDS_P2;PMS_P1;PMS_P2;Temp;Humidity;BMP_temperature;BMP_pressure;BME280_temperature;BME280_humidity;BME280_pressure;Samples;Min_cycle;Max_cycle;Signal;HPM_P1;HPM_P2
2022/07/05 00:00:20;;;;;;;2.28;0.50;;;21.50;44.40;;;;;;2316336;54;20965;-68
2022/07/05 00:02:46;;;;;;;2.47;0.47;;;21.50;44.50;;;;;;2311829;54;20959;-70
2022/07/05 00:05:13;;;;;;;1.35;0.55;;;21.50;44.50;;;;;;2313003;54;20992;-68
2022/07/05 00:07:39;;;;;;;1.33;0.50;;;21.40;44.50;;;;;;2312365;54;20989;-68
2022/07/05 00:10:08;;;;;;;1.70;0.60;;;21.40;44.50;;;;;;2308651;54;21601;-68
2022/07/05 00:12:34;;;;;;;1.55;0.73;;;21.30;44.50;;;;;;2437050;54;20940;-69
2022/07/05 00:15:01;;;;;;;1.33;0.43;;;21.30;44.60;;;;;;2452228;54;20941;-68
2022/07/05 00:17:28;;;;;;;1.27;0.50;;;21.30;44.80;;;;;;2315292;54;21006;-67
2022/07/05 00:19:54;;;;;;;1.37;0.50;;;21.30;44.80;;;;;;2310229;54;20901;-68
2022/07/05 00:22:21;;;;;;;1.25;0.50;;;21.30;45.00;;;;;;2309454;54;20972;-69
2022/07/05 00:24:54;;;;;;;1.30;0.50;;;21.20;45.00;;;;;;2361074;54;20953;-68
2022/07/05 00:27:20;;;;;;;1.30;0.50;;;21.20;45.10;;;;;;2321379;54;20964;-68
2022/07/05 00:29:47;;;;;;;1.00;0.40;;;21.10;45.10;;;;;;2307853;54;20933;-69
2022/07/05 00:32:13;;;;;;;1.33;0.52;;;21.10;45.20;;;;;;2308969;54;20925;-68
2022/07/05 00:34:40;;;;;;;1.15;0.43;;;21.10;45.30;;;;;;2313974;54;21503;-69
2022/07/05 00:37:06;;;;;;;1.33;0.50;;;21.00;45.20;;;;;;2314579;54;20954;-68
2022/07/05 00:39:33;;;;;;;0.98;0.45;;;21.00;45.20;;;;;;2306774;54;21017;-70
2022/07/05 00:42:00;;;;;;;0.73;0.40;;;20.90;45.20;;;;;;2386801;54;20930;-70
2022/07/05 00:44:31;;;;;;;1.40;0.50;;;20.90;45.30;;;;;;2451967;54;20937;-67
2022/07/05 00:46:58;;;;;;;0.95;0.40;;;20.90;45.50;;;;;;2307814;54;20968;-70
2022/07/05 00:49:24;;;;;;;0.50;0.30;;;20.80;45.50;;;;;;2308960;54;21477;-66
2022/07/05 00:51:53;;;;;;;2.05;0.50;;;20.80;45.50;;;;;;2308204;54;21005;-69
2022/07/05 00:54:42;;;;;;;1.27;0.50;;;20.70;45.70;;;;;;2314224;54;21875;-68
2022/07/05 00:57:09;;;;;;;1.17;0.40;;;20.70;45.70;;;;;;2308158;54;20933;-67
2022/07/05 00:59:35;;;;;;;0.28;0.20;;;20.70;45.80;;;;;;2309031;54;20938;-67
2022/07/05 01:02:02;;;;;;;0.85;0.30;;;20.60;45.70;;;;;;2365637;54;21041;-68
2022/07/05 01:04:29;;;;;;;1.27;0.40;;;20.70;45.80;;;;;;2309068;54;21398;-68
2022/07/05 01:06:58;;;;;;;3.10;0.50;;;20.60;46.40;;;;;;2309008;54;20978;-67
2022/07/05 01:09:24;;;;;;;1.85;0.40;;;20.50;45.80;;;;;;2309209;54;21005;-69
2022/07/05 01:11:51;;;;;;;1.83;0.50;;;20.50;45.90;;;;;;2309214;54;20941;-68
2022/07/05 01:14:19;;;;;;;1.00;0.40;;;20.50;46.20;;;;;;2308937;54;20910;-67
2022/07/05 01:16:45;;;;;;;1.05;0.40;;;20.50;46.30;;;;;;2309478;54;20964;-67
2022/07/05 01:19:12;;;;;;;0.95;0.40;;;20.40;46.20;;;;;;2309125;54;20949;-67
2022/07/05 01:21:42;;;;;;;1.45;0.50;;;20.40;46.20;;;;;;2294262;55;20957;-69
2022/07/05 01:24:10;;;;;;;0.62;0.40;;;20.40;46.30;;;;;;2314882;54;20958;-67
2022/07/05 01:26:36;;;;;;;1.42;0.47;;;20.40;46.30;;;;;;2303341;54;21071;-68
2022/07/05 01:29:03;;;;;;;0.95;0.45;;;20.40;46.30;;;;;;2314368;54;21014;-67
2022/07/05 01:31:29;;;;;;;1.15;0.47;;;20.30;46.20;;;;;;2309656;54;20933;-66
2022/07/05 01:33:56;;;;;;;1.52;0.40;;;20.30;46.20;;;;;;2309232;54;21433;-70
2022/07/05 01:36:22;;;;;;;0.62;0.32;;;20.20;46.90;;;;;;2308615;54;21537;-68
2022/07/05 01:38:49;;;;;;;1.30;0.50;;;20.20;46.40;;;;;;2308883;54;20945;-69
2022/07/05 01:41:15;;;;;;;0.93;0.40;;;20.20;46.50;;;;;;2309364;54;20945;-66
2022/07/05 01:43:42;;;;;;;0.62;0.30;;;20.10;46.50;;;;;;2308864;54;21450;-69
2022/07/05 01:46:09;;;;;;;1.85;0.70;;;20.10;46.60;;;;;;2308574;54;20941;-69
2022/07/05 01:48:38;;;;;;;1.45;0.47;;;20.10;46.70;;;;;;2315785;54;21515;-68
2022/07/05 01:51:22;;;;;;;1.27;0.40;;;20.00;46.70;;;;;;2309020;54;21762;-68
2022/07/05 01:53:53;;;;;;;0.60;0.30;;;20.10;47.10;;;;;;2294313;55;20933;-67
2022/07/05 01:56:19;;;;;;;1.37;0.40;;;20.00;46.80;;;;;;2310176;54;21695;-68
2022/07/05 01:58:46;;;;;;;1.10;0.40;;;20.00;46.80;;;;;;2314329;54;20938;-68
2022/07/05 02:01:12;;;;;;;1.67;0.52;;;20.00;46.90;;;;;;2359840;54;20984;-69
2022/07/05 02:03:39;;;;;;;1.35;0.50;;;20.00;46.90;;;;;;2309477;54;20989;-69
2022/07/05 02:06:21;;;;;;;1.40;0.50;;;20.00;47.00;;;;;;2309959;54;20939;-68
2022/07/05 02:08:48;;;;;;;1.20;0.37;;;20.00;46.90;;;;;;2309386;54;21735;-68
2022/07/05 02:11:14;;;;;;;1.90;0.60;;;19.90;47.50;;;;;;2309626;54;20914;-68
2022/07/05 02:13:41;;;;;;;0.85;0.40;;;19.90;46.90;;;;;;2398098;54;21281;-69
2022/07/05 02:16:07;;;;;;;0.50;0.32;;;20.00;46.90;;;;;;2312866;54;21082;-68
2022/07/05 02:18:35;;;;;;;0.90;0.57;;;19.90;46.90;;;;;;2311107;54;21005;-67
2022/07/05 02:21:05;;;;;;;1.52;0.50;;;19.80;46.80;;;;;;2309314;54;20965;-68
2022/07/05 02:23:32;;;;;;;1.80;0.32;;;19.80;46.80;;;;;;2309438;54;20942;-68
2022/07/05 02:25:58;;;;;;;0.98;0.40;;;19.80;46.90;;;;;;2309111;54;21785;-68
2022/07/05 02:28:25;;;;;;;1.05;0.50;;;19.80;46.90;;;;;;2547933;54;20942;-67
2022/07/05 02:30:52;;;;;;;1.10;0.50;;;19.80;47.00;;;;;;2309057;54;22016;-70
2022/07/05 02:33:18;;;;;;;0.60;0.30;;;19.70;46.90;;;;;;2358155;54;20933;-67
2022/07/05 02:35:45;;;;;;;1.02;0.40;;;19.70;47.00;;;;;;2309329;54;20992;-70
2022/07/05 02:38:11;;;;;;;0.68;0.40;;;19.70;47.10;;;;;;2548130;54;20997;-68
2022/07/05 02:40:37;;;;;;;0.55;0.30;;;19.70;47.20;;;;;;2314375;54;20946;-69
2022/07/05 02:43:04;;;;;;;1.10;0.43;;;19.70;47.20;;;;;;2336120;54;20921;-68
2022/07/05 02:45:30;;;;;;;1.08;0.47;;;19.60;47.10;;;;;;2310058;54;20961;-68
2022/07/05 02:47:59;;;;;;;1.35;0.43;;;19.60;47.20;;;;;;2309521;54;20973;-70
2022/07/05 02:50:25;;;;;;;2.22;0.55;;;19.60;47.20;;;;;;2548586;54;21013;-68
2022/07/05 02:52:52;;;;;;;1.05;0.43;;;19.60;47.40;;;;;;2293702;55;20982;-68
2022/07/05 02:55:18;;;;;;;0.80;0.40;;;19.50;47.40;;;;;;2316469;54;21029;-68
2022/07/05 02:57:45;;;;;;;0.80;0.30;;;19.50;47.40;;;;;;2314539;54;20925;-69
2022/07/05 03:00:13;;;;;;;1.48;0.40;;;19.50;47.40;;;;;;2310629;54;20964;-68
2022/07/05 03:02:39;;;;;;;1.65;0.40;;;19.40;47.40;;;;;;2384478;54;20961;-70
2022/07/05 03:05:06;;;;;;;0.77;0.40;;;19.40;47.40;;;;;;2309337;54;20961;-69
2022/07/05 03:07:32;;;;;;;0.70;0.40;;;19.40;47.40;;;;;;2307242;54;20937;-70
2022/07/05 03:09:58;;;;;;;1.25;0.50;;;19.30;47.40;;;;;;2313164;54;21591;-69
2022/07/05 03:12:25;;;;;;;0.60;0.32;;;19.30;47.50;;;;;;2307672;54;20985;-68
2022/07/05 03:14:51;;;;;;;1.50;0.50;;;19.30;47.60;;;;;;2307125;54;20941;-67
2022/07/05 03:17:18;;;;;;;1.35;0.40;;;19.30;47.60;;;;;;2311907;54;21449;-69
2022/07/05 03:19:44;;;;;;;1.65;0.50;;;19.20;47.60;;;;;;2307867;54;21064;-68
2022/07/05 03:22:11;;;;;;;1.40;0.50;;;19.20;47.60;;;;;;2294420;54;20929;-67
2022/07/05 03:24:39;;;;;;;2.28;0.75;;;19.20;47.60;;;;;;2306425;54;21175;-70
2022/07/05 03:27:05;;;;;;;1.45;0.50;;;19.10;47.70;;;;;;2308890;54;20921;-69
2022/07/05 03:29:32;;;;;;;1.80;0.75;;;19.10;48.00;;;;;;2403972;54;21746;-68
2022/07/05 03:31:58;;;;;;;1.35;0.60;;;19.10;48.20;;;;;;2309419;54;20986;-66
2022/07/05 03:34:25;;;;;;;1.27;0.60;;;19.10;48.20;;;;;;2300728;54;21084;-69
2022/07/05 03:36:51;;;;;;;1.45;0.50;;;19.10;48.30;;;;;;2307879;54;21675;-70
2022/07/05 03:39:18;;;;;;;2.10;0.70;;;19.00;48.30;;;;;;2309875;54;21443;-69
2022/07/05 03:41:45;;;;;;;1.12;0.50;;;19.00;48.30;;;;;;2309444;54;20941;-68
2022/07/05 03:44:14;;;;;;;0.85;0.60;;;19.00;48.20;;;;;;2309453;54;21001;-70
2022/07/05 03:46:40;;;;;;;1.50;0.50;;;19.00;48.30;;;;;;2311701;54;20953;-70
2022/07/05 03:49:07;;;;;;;1.48;0.50;;;19.00;48.40;;;;;;2309897;54;21028;-68
2022/07/05 03:51:33;;;;;;;1.50;0.60;;;19.00;48.60;;;;;;2309229;54;20925;-67
2022/07/05 03:54:00;;;;;;;1.52;0.60;;;19.00;48.60;;;;;;2326629;54;21424;-70
2022/07/05 03:56:26;;;;;;;2.28;0.70;;;19.00;48.70;;;;;;2310610;54;20988;-68
2022/07/05 03:58:53;;;;;;;1.05;0.47;;;18.90;48.70;;;;;;2315466;54;20991;-67
2022/07/05 04:01:21;;;;;;;1.45;0.55;;;19.00;48.70;;;;;;2326273;54;1339924;-68
2022/07/05 04:03:47;;;;;;;1.98;0.60;;;19.00;48.80;;;;;;2347850;54;20958;-68
2022/07/05 04:06:14;;;;;;;1.50;0.57;;;19.00;48.90;;;;;;2311155;54;21004;-68
2022/07/05 04:08:40;;;;;;;2.67;0.60;;;19.00;48.90;;;;;;2304466;54;21040;-68
2022/07/05 04:11:09;;;;;;;1.10;0.57;;;19.00;48.90;;;;;;2309137;54;20901;-68
2022/07/05 04:13:37;;;;;;;2.20;0.73;;;19.00;48.90;;;;;;2548596;54;20901;-69
2022/07/05 04:16:04;;;;;;;2.95;0.70;;;19.00;49.00;;;;;;2309941;54;20969;-70
2022/07/05 04:18:31;;;;;;;1.33;0.57;;;19.00;49.20;;;;;;2329698;54;20994;-69
2022/07/05 04:20:57;;;;;;;2.05;0.80;;;19.00;49.30;;;;;;2401075;54;21561;-68
2022/07/05 04:23:24;;;;;;;1.90;0.75;;;19.00;49.40;;;;;;2324411;54;20930;-70
2022/07/05 04:25:50;;;;;;;1.65;0.77;;;19.00;49.60;;;;;;2513329;54;20972;-68
2022/07/05 04:28:19;;;;;;;1.98;0.50;;;19.00;49.60;;;;;;2415545;54;21617;-67
2022/07/05 04:30:48;;;;;;;1.65;0.55;;;19.00;49.50;;;;;;2312632;54;21048;-70
2022/07/05 04:33:15;;;;;;;3.20;1.50;;;19.00;49.40;;;;;;2344894;55;20973;-68
2022/07/05 04:35:42;;;;;;;3.20;1.40;;;19.00;49.30;;;;;;2309102;54;20965;-68
2022/07/05 04:38:08;;;;;;;1.90;0.82;;;19.00;49.30;;;;;;2325740;54;21062;-68
2022/07/05 04:40:35;;;;;;;2.25;1.00;;;19.00;49.30;;;;;;2312633;54;20974;-69
2022/07/05 04:43:01;;;;;;;1.70;0.77;;;19.00;49.30;;;;;;2549411;54;20933;-68
2022/07/05 04:45:27;;;;;;;1.67;0.60;;;19.00;49.30;;;;;;2308400;54;21743;-69
2022/07/05 04:47:54;;;;;;;1.20;0.55;;;19.00;49.30;;;;;;2402679;54;21422;-68
2022/07/05 04:50:20;;;;;;;2.62;0.75;;;19.00;49.30;;;;;;2309031;54;20966;-69
2022/07/05 04:52:47;;;;;;;1.20;0.50;;;19.00;49.40;;;;;;2311826;54;20997;-67
2022/07/05 04:55:13;;;;;;;3.40;0.70;;;19.10;49.50;;;;;;2308768;54;20961;-70
2022/07/05 04:57:40;;;;;;;1.77;0.70;;;19.10;49.50;;;;;;2309364;54;21001;-68
2022/07/05 05:00:19;;;;;;;1.23;0.50;;;19.10;49.60;;;;;;2376576;54;20961;-70
2022/07/05 05:02:47;;;;;;;1.50;0.50;;;19.10;49.80;;;;;;2309333;54;21013;-67
2022/07/05 05:05:13;;;;;;;1.08;0.50;;;19.10;49.60;;;;;;2309214;54;22004;-69
2022/07/05 05:07:43;;;;;;;1.27;0.45;;;19.10;49.60;;;;;;2308640;54;20921;-68
2022/07/05 05:10:09;;;;;;;1.20;0.50;;;19.10;49.70;;;;;;2315460;54;21009;-70
2022/07/05 05:12:36;;;;;;;2.25;0.55;;;19.20;49.70;;;;;;2307550;54;21372;-70
2022/07/05 05:15:03;;;;;;;1.15;0.50;;;19.20;49.80;;;;;;2351732;54;21026;-69
2022/07/05 05:17:43;;;;;;;1.67;0.60;;;19.20;49.80;;;;;;2306071;53;21662;-70
2022/07/05 05:20:11;;;;;;;1.15;0.50;;;19.20;50.10;;;;;;2424251;53;20967;-70
2022/07/05 05:22:38;;;;;;;1.48;0.50;;;19.20;49.80;;;;;;2306662;54;20945;-69
2022/07/05 05:25:05;;;;;;;1.85;0.60;;;19.20;49.90;;;;;;2308227;54;21061;-70
2022/07/05 05:27:31;;;;;;;2.28;0.68;;;19.30;50.10;;;;;;2398759;54;20939;-69
2022/07/05 05:29:59;;;;;;;1.23;0.62;;;19.30;50.10;;;;;;2305277;54;20937;-68
2022/07/05 05:32:25;;;;;;;5.22;0.80;;;19.30;50.20;;;;;;2309642;54;20981;-69
2022/07/05 05:34:52;;;;;;;1.00;0.50;;;19.40;50.30;;;;;;2321272;54;20905;-69
2022/07/05 05:37:19;;;;;;;2.00;0.68;;;19.30;50.20;;;;;;2310494;54;20989;-69
2022/07/05 05:39:45;;;;;;;1.42;0.62;;;19.40;50.40;;;;;;2316337;54;21809;-68
2022/07/05 05:42:11;;;;;;;1.70;0.57;;;19.50;50.50;;;;;;2308649;54;21012;-70
2022/07/05 05:44:38;;;;;;;3.40;0.90;;;19.50;50.60;;;;;;2309130;54;21001;-68
2022/07/05 05:47:04;;;;;;;1.52;0.52;;;19.60;50.70;;;;;;2309175;54;21049;-70
2022/07/05 05:49:30;;;;;;;2.05;0.60;;;19.60;50.80;;;;;;2310106;54;20924;-68
2022/07/05 05:51:57;;;;;;;1.58;0.55;;;19.70;50.90;;;;;;2418453;54;21490;-67
2022/07/05 05:54:26;;;;;;;1.75;0.70;;;19.70;50.90;;;;;;2298945;54;21461;-69
2022/07/05 05:56:52;;;;;;;1.35;0.60;;;19.80;51.00;;;;;;2309415;54;20977;-68
2022/07/05 05:59:19;;;;;;;1.27;0.50;;;19.80;51.10;;;;;;2437535;54;20937;-68
2022/07/05 06:01:45;;;;;;;2.50;0.80;;;19.90;51.10;;;;;;2308961;54;20953;-70
2022/07/05 06:04:12;;;;;;;2.30;0.70;;;19.90;51.10;;;;;;2308958;54;21514;-69
2022/07/05 06:06:40;;;;;;;1.95;0.75;;;20.00;51.10;;;;;;2353925;54;21774;-70
2022/07/05 06:09:07;;;;;;;2.22;0.77;;;20.10;51.30;;;;;;2316773;54;20938;-69
2022/07/05 06:11:36;;;;;;;1.58;0.60;;;20.10;51.30;;;;;;2322717;54;21001;-69
2022/07/05 06:14:02;;;;;;;3.03;0.88;;;20.20;51.40;;;;;;2309225;54;20941;-69
2022/07/05 06:16:28;;;;;;;2.12;0.60;;;20.30;51.50;;;;;;2322854;54;20990;-70
2022/07/05 06:18:55;;;;;;;2.25;0.80;;;20.40;51.50;;;;;;2309594;54;21427;-70
2022/07/05 06:21:21;;;;;;;1.45;0.65;;;20.40;51.50;;;;;;2375915;54;21016;-67
2022/07/05 06:23:48;;;;;;;1.90;0.70;;;20.50;51.50;;;;;;2309247;54;21473;-67
2022/07/05 06:26:14;;;;;;;2.80;0.80;;;20.60;51.60;;;;;;2552473;54;20946;-69
2022/07/05 06:28:41;;;;;;;4.55;0.95;;;20.70;51.80;;;;;;2296319;54;21299;-70
2022/07/05 06:31:08;;;;;;;2.12;0.80;;;20.70;51.90;;;;;;2308305;54;20969;-69
2022/07/05 06:33:34;;;;;;;2.85;0.70;;;20.80;51.90;;;;;;2313182;54;21894;-67
2022/07/05 06:36:01;;;;;;;1.35;0.60;;;20.90;51.80;;;;;;2319564;54;20965;-70
2022/07/05 06:38:27;;;;;;;2.03;0.60;;;20.90;51.80;;;;;;2310165;54;21044;-68
2022/07/05 06:40:56;;;;;;;1.65;0.60;;;21.00;51.80;;;;;;2300383;54;20954;-70
2022/07/05 06:43:25;;;;;;;2.10;0.70;;;21.10;51.90;;;;;;2315010;54;20938;-71
2022/07/05 06:45:52;;;;;;;2.22;0.73;;;21.20;51.80;;;;;;2310645;54;20946;-68
2022/07/05 06:48:19;;;;;;;1.42;0.70;;;21.20;51.90;;;;;;2308091;54;21361;-70
2022/07/05 06:50:46;;;;;;;2.10;0.73;;;21.30;52.00;;;;;;2311952;54;21473;-69
2022/07/05 06:53:12;;;;;;;1.85;0.70;;;21.40;51.90;;;;;;2316046;54;20966;-70
2022/07/05 06:55:44;;;;;;;3.15;1.00;;;21.50;51.90;;;;;;2309620;54;20893;-70
2022/07/05 06:58:11;;;;;;;2.00;0.77;;;21.50;51.90;;;;;;2309239;54;20933;-70
2022/07/05 07:00:39;;;;;;;4.00;0.90;;;21.60;51.90;;;;;;2318764;54;21935;-69
2022/07/05 07:03:35;;;;;;;2.85;1.10;;;21.70;52.00;;;;;;2304793;54;21687;-69
2022/07/05 07:06:35;;;;;;;1.95;0.70;;;21.80;52.00;;;;;;2344644;54;20950;-70
2022/07/05 07:09:23;;;;;;;2.00;0.90;;;21.90;51.90;;;;;;2547252;54;21536;-70
2022/07/05 07:11:49;;;;;;;4.05;1.00;;;22.00;51.80;;;;;;2314852;54;20938;-67
2022/07/05 07:14:16;;;;;;;1.62;0.77;;;22.10;51.70;;;;;;2369098;54;21015;-68
2022/07/05 07:16:43;;;;;;;1.92;0.80;;;22.20;51.60;;;;;;2320700;54;20962;-68
2022/07/05 07:19:09;;;;;;;3.22;1.00;;;22.20;51.60;;;;;;2297566;54;21026;-71
2022/07/05 07:21:37;;;;;;;2.97;1.00;;;22.30;51.60;;;;;;2308659;54;20944;-70
2022/07/05 07:24:04;;;;;;;1.90;0.90;;;22.40;51.50;;;;;;2309118;54;21445;-68
2022/07/05 07:27:02;;;;;;;2.75;1.30;;;22.40;51.40;;;;;;2444769;54;20926;-70
2022/07/05 07:29:33;;;;;;;2.58;0.82;;;22.50;51.50;;;;;;2364260;54;21449;-68
2022/07/05 07:31:59;;;;;;;1.37;0.80;;;22.60;51.60;;;;;;2310313;54;21800;-71
2022/07/05 07:34:26;;;;;;;1.80;0.80;;;22.70;51.70;;;;;;2309375;54;21073;-70
2022/07/05 07:36:53;;;;;;;2.12;0.80;;;22.80;51.60;;;;;;2400902;54;21759;-70
2022/07/05 07:39:19;;;;;;;2.70;0.80;;;22.90;51.40;;;;;;2318835;54;20961;-71
2022/07/05 07:41:45;;;;;;;2.22;0.90;;;23.00;51.20;;;;;;2381390;54;20905;-71
2022/07/05 07:44:15;;;;;;;2.08;0.70;;;23.00;51.10;;;;;;2319080;54;20994;-70
2022/07/05 07:46:41;;;;;;;4.22;1.12;;;23.10;51.10;;;;;;2299762;54;21441;-70
2022/07/05 07:49:09;;;;;;;1.92;0.82;;;23.20;51.10;;;;;;2312791;54;21800;-69
2022/07/05 07:51:36;;;;;;;2.35;0.80;;;23.30;51.00;;;;;;2315815;54;21864;-70
2022/07/05 07:54:04;;;;;;;1.70;0.70;;;23.30;50.90;;;;;;2317046;54;21073;-70
2022/07/05 07:56:30;;;;;;;1.87;0.60;;;23.40;50.90;;;;;;2322379;54;21062;-69
2022/07/05 07:58:57;;;;;;;1.58;0.70;;;23.50;50.80;;;;;;2305591;54;20937;-71
2022/07/05 08:01:23;;;;;;;1.60;0.80;;;23.60;50.80;;;;;;2309825;54;21022;-72
2022/07/05 08:03:50;;;;;;;2.05;0.88;;;23.60;50.60;;;;;;2314932;54;20962;-71
2022/07/05 08:06:20;;;;;;;2.53;0.90;;;23.70;50.60;;;;;;2309678;54;21680;-71
2022/07/05 08:08:47;;;;;;;1.75;0.75;;;23.80;50.40;;;;;;2307777;54;21361;-70
2022/07/05 08:11:13;;;;;;;3.10;0.90;;;23.80;50.30;;;;;;2315071;54;20946;-70
2022/07/05 08:13:40;;;;;;;2.15;0.80;;;23.90;50.30;;;;;;2301785;54;20972;-70
2022/07/05 08:16:07;;;;;;;1.92;0.90;;;23.90;50.20;;;;;;2316176;54;20982;-71
2022/07/05 08:21:38;;;;;;;1.67;0.80;;;24.10;50.00;;;;;;2394697;54;21026;-71
2022/07/05 08:24:08;;;;;;;2.05;0.70;;;24.10;49.90;;;;;;2316276;54;20972;-70
2022/07/05 08:26:35;;;;;;;2.85;0.90;;;24.20;49.80;;;;;;2306202;54;21020;-71
2022/07/05 08:29:02;;;;;;;2.33;0.90;;;24.30;50.00;;;;;;2298807;54;20948;-70
2022/07/05 08:31:38;;;;;;;1.70;0.70;;;24.30;50.00;;;;;;2309032;54;21371;-70
2022/07/05 08:34:05;;;;;;;2.17;0.77;;;24.40;49.90;;;;;;2309282;54;21319;-70
2022/07/05 08:36:31;;;;;;;2.40;0.80;;;24.40;49.60;;;;;;2308796;54;20981;-70
2022/07/05 08:38:57;;;;;;;3.10;0.77;;;24.50;49.40;;;;;;2309035;54;20925;-72
2022/07/05 08:41:24;;;;;;;2.20;0.77;;;24.60;49.50;;;;;;2308816;54;20921;-71
2022/07/05 08:43:51;;;;;;;3.85;0.93;;;24.60;49.60;;;;;;2365066;54;20983;-71
2022/07/05 08:46:18;;;;;;;2.35;0.90;;;24.60;49.50;;;;;;2305638;54;21057;-72
2022/07/05 08:48:50;;;;;;;3.37;0.98;;;24.70;49.50;;;;;;2309222;54;20942;-68
2022/07/05 08:51:21;;;;;;;1.95;0.80;;;24.80;49.40;;;;;;2309235;54;21348;-70
2022/07/05 08:53:49;;;;;;;2.53;0.82;;;24.80;49.40;;;;;;2344219;54;21009;-70
2022/07/05 08:56:16;;;;;;;1.75;0.68;;;24.90;49.40;;;;;;2309251;54;20941;-70
2022/07/05 08:58:46;;;;;;;2.92;0.80;;;25.00;49.20;;;;;;2308997;54;20981;-71
2022/07/05 09:01:16;;;;;;;3.95;0.70;;;25.00;49.30;;;;;;2308664;54;20934;-71
2022/07/05 09:03:47;;;;;;;1.77;0.73;;;25.10;49.30;;;;;;2314951;54;20985;-68
2022/07/05 09:06:26;;;;;;;2.17;0.70;;;25.10;49.00;;;;;;2311446;54;20949;-71
2022/07/05 09:08:55;;;;;;;1.50;0.52;;;25.20;48.90;;;;;;2314164;54;20938;-69
2022/07/05 09:11:35;;;;;;;1.45;0.60;;;25.30;49.10;;;;;;2310897;54;20901;-68
2022/07/05 09:14:03;;;;;;;2.58;0.80;;;25.40;48.80;;;;;;2308154;54;20929;-69
2022/07/05 09:16:52;;;;;;;2.40;0.80;;;25.40;48.60;;;;;;2309434;54;20965;-68
2022/07/05 09:19:19;;;;;;;2.30;0.90;;;25.50;48.40;;;;;;2315258;54;21027;-69
2022/07/05 09:21:45;;;;;;;2.10;0.80;;;25.50;48.30;;;;;;2319782;54;20938;-69
2022/07/05 09:24:13;;;;;;;2.42;0.70;;;25.60;48.30;;;;;;2311309;54;20914;-69
2022/07/05 09:26:48;;;;;;;1.77;0.70;;;25.70;48.20;;;;;;2309158;54;20910;-72
2022/07/05 09:29:16;;;;;;;1.92;0.65;;;25.70;47.90;;;;;;2309147;54;20965;-69
2022/07/05 09:32:08;;;;;;;2.50;0.80;;;25.80;47.90;;;;;;2309025;54;20968;-69
2022/07/05 09:34:34;;;;;;;2.78;1.00;;;25.80;47.80;;;;;;2308666;54;20917;-69
2022/07/05 09:37:02;;;;;;;3.92;0.82;;;25.90;47.70;;;;;;2315360;54;20934;-68
2022/07/05 09:39:46;;;;;;;1.80;0.80;;;25.90;47.70;;;;;;2478268;54;20953;-69
2022/07/05 09:42:23;;;;;;;1.87;0.62;;;26.00;47.70;;;;;;2293604;55;20973;-68
2022/07/05 09:44:58;;;;;;;2.33;0.62;;;26.10;47.80;;;;;;2312917;54;20969;-69
2022/07/05 09:47:27;;;;;;;2.12;0.73;;;26.20;47.60;;;;;;2311393;54;21324;-70
2022/07/05 09:49:54;;;;;;;1.87;0.70;;;26.20;47.50;;;;;;2312956;54;21345;-71
2022/07/05 09:52:37;;;;;;;1.77;0.62;;;26.30;47.30;;;;;;2376774;54;21858;-69
2022/07/05 09:55:12;;;;;;;2.15;0.60;;;26.30;46.90;;;;;;2315907;54;21026;-69
2022/07/05 09:57:39;;;;;;;2.28;0.70;;;26.40;46.80;;;;;;2310911;54;21600;-69
2022/07/05 10:00:19;;;;;;;2.30;0.90;;;26.50;46.70;;;;;;2308730;54;21482;-70
2022/07/05 10:02:53;;;;;;;1.67;0.50;;;26.50;46.20;;;;;;2397022;54;21743;-69
2022/07/05 10:05:23;;;;;;;1.85;0.70;;;26.60;46.40;;;;;;2312166;54;20993;-68
2022/07/05 10:07:53;;;;;;;1.87;0.62;;;26.70;46.40;;;;;;2310114;54;21321;-69
2022/07/05 10:10:24;;;;;;;2.05;0.65;;;26.70;46.00;;;;;;2293852;55;20961;-69
2022/07/05 10:13:07;;;;;;;2.05;0.70;;;26.70;46.10;;;;;;2310062;54;20926;-71
2022/07/05 10:15:36;;;;;;;2.05;0.68;;;26.80;45.90;;;;;;2309592;54;20929;-68
2022/07/05 10:18:10;;;;;;;1.90;0.70;;;26.90;45.90;;;;;;2309302;54;20941;-69
2022/07/05 10:20:43;;;;;;;2.67;0.60;;;26.90;45.90;;;;;;2380784;54;20941;-69
2022/07/05 10:23:17;;;;;;;2.22;0.60;;;27.00;46.00;;;;;;2309264;54;21410;-68
2022/07/05 10:25:47;;;;;;;1.87;0.55;;;27.00;45.70;;;;;;2416674;54;20937;-71
2022/07/05 10:28:14;;;;;;;1.75;0.70;;;27.10;45.80;;;;;;2308929;54;21008;-70
2022/07/05 10:30:41;;;;;;;1.55;0.50;;;27.10;45.70;;;;;;2322977;54;21004;-72
2022/07/05 10:33:07;;;;;;;2.40;0.70;;;27.20;45.40;;;;;;2309356;54;20945;-70
2022/07/05 10:35:34;;;;;;;1.67;0.60;;;27.20;45.10;;;;;;2434987;54;20933;-72
2022/07/05 10:38:00;;;;;;;1.20;0.70;;;27.30;45.00;;;;;;2430214;54;21417;-70
2022/07/05 10:40:28;;;;;;;4.50;0.90;;;27.30;44.80;;;;;;2315218;54;20945;-70
2022/07/05 10:43:01;;;;;;;2.05;0.80;;;27.40;44.90;;;;;;2403161;54;21054;-71
2022/07/05 10:45:34;;;;;;;1.75;0.65;;;27.40;44.90;;;;;;2361327;54;20945;-70
2022/07/05 10:49:17;;;;;;;1.62;0.57;;;27.50;44.50;;;;;;2309454;54;20973;-69
2022/07/05 10:51:43;;;;;;;2.42;0.60;;;27.60;44.30;;;;;;2331010;54;20966;-69
2022/07/05 10:54:10;;;;;;;1.42;0.47;;;27.60;44.50;;;;;;2309183;54;21888;-70
2022/07/05 10:56:38;;;;;;;3.35;0.85;;;27.70;44.30;;;;;;2341637;54;21048;-72
2022/07/05 10:59:06;;;;;;;2.05;0.68;;;27.70;44.20;;;;;;2309205;54;20944;-70
2022/07/05 11:01:33;;;;;;;1.48;0.50;;;27.80;44.20;;;;;;2308179;54;21037;-69
2022/07/05 11:04:20;;;;;;;2.35;0.52;;;27.80;44.00;;;;;;2308694;54;21327;-70
2022/07/05 11:06:49;;;;;;;3.50;0.60;;;27.90;43.40;;;;;;2361317;54;21097;-69
2022/07/05 11:09:19;;;;;;;1.90;0.60;;;27.90;44.00;;;;;;2507851;54;20949;-71
2022/07/05 11:13:27;;;;;;;1.58;0.60;;;28.00;44.20;;;;;;2480199;54;20949;-70
2022/07/05 11:18:51;;;;;;;0.68;0.30;;;28.10;43.80;;;;;;2308579;54;21395;-72
2022/07/05 11:21:21;;;;;;;1.27;0.40;;;28.10;42.90;;;;;;2336965;54;21701;-71
2022/07/05 11:23:48;;;;;;;0.77;0.30;;;28.20;43.00;;;;;;2315301;54;21824;-70
2022/07/05 11:26:17;;;;;;;1.52;0.50;;;28.30;42.90;;;;;;2327883;54;21012;-71
2022/07/05 11:28:44;;;;;;;1.45;0.50;;;28.30;42.70;;;;;;2320328;54;20998;-70
2022/07/05 11:31:10;;;;;;;1.33;0.35;;;28.40;42.70;;;;;;2305034;54;21422;-70
2022/07/05 11:33:43;;;;;;;2.47;0.40;;;28.40;42.60;;;;;;2307828;54;20956;-72
2022/07/05 11:36:21;;;;;;;4.12;0.70;;;28.50;42.00;;;;;;2464868;54;21046;-70
2022/07/05 11:39:10;;;;;;;2.03;0.60;;;28.50;41.50;;;;;;2300969;54;20924;-70
2022/07/05 11:41:39;;;;;;;0.55;0.30;;;28.60;41.40;;;;;;2355076;54;20933;-71
2022/07/05 11:44:06;;;;;;;1.77;0.62;;;28.60;41.80;;;;;;2313913;54;20954;-73
2022/07/05 11:46:33;;;;;;;0.88;0.40;;;28.60;41.60;;;;;;2313055;54;20980;-71
2022/07/05 11:49:24;;;;;;;1.90;0.57;;;28.70;41.70;;;;;;2308672;54;21009;-72
2022/07/05 11:52:06;;;;;;;1.00;0.43;;;28.70;41.20;;;;;;2308492;54;21018;-74
2022/07/05 11:54:33;;;;;;;2.12;0.60;;;28.80;41.20;;;;;;2369555;54;20949;-74
2022/07/05 11:57:00;;;;;;;1.50;0.60;;;28.80;41.30;;;;;;2327599;54;21343;-75
2022/07/05 11:59:27;;;;;;;0.95;0.40;;;28.90;41.00;;;;;;2313887;54;21837;-73
2022/07/05 12:01:53;;;;;;;3.08;0.62;;;28.90;40.80;;;;;;2310064;54;21474;-75
2022/07/05 12:04:29;;;;;;;2.33;0.70;;;29.00;40.70;;;;;;2310879;54;20939;-73
2022/07/05 12:06:56;;;;;;;2.22;0.70;;;29.00;40.50;;;;;;2309199;54;20925;-73
2022/07/05 12:09:24;;;;;;;1.42;0.52;;;29.00;40.90;;;;;;2309104;54;20989;-74
2022/07/05 12:14:51;;;;;;;2.03;0.70;;;29.10;41.20;;;;;;2312018;54;21076;-73
2022/07/05 12:17:18;;;;;;;1.73;0.62;;;29.20;41.10;;;;;;2361540;54;20913;-75
2022/07/05 12:19:52;;;;;;;2.60;0.80;;;29.20;41.00;;;;;;2309663;54;20997;-73
2022/07/05 12:22:28;;;;;;;2.97;0.90;;;29.30;40.70;;;;;;2361535;54;20933;-74
2022/07/05 12:24:55;;;;;;;2.30;1.10;;;29.30;39.80;;;;;;2309553;54;21556;-73
2022/07/05 12:27:21;;;;;;;2.72;0.95;;;29.40;40.20;;;;;;2315296;54;20906;-73
2022/07/05 12:29:48;;;;;;;2.55;0.90;;;29.40;39.90;;;;;;2309507;54;20909;-77
2022/07/05 12:32:18;;;;;;;1.92;0.70;;;29.40;39.80;;;;;;2374068;54;21341;-75
2022/07/05 12:34:45;;;;;;;3.30;0.70;;;29.50;40.00;;;;;;2309934;54;21016;-73
2022/07/05 12:37:22;;;;;;;1.58;0.60;;;29.50;39.80;;;;;;2316351;54;21434;-73
2022/07/05 12:39:49;;;;;;;2.45;0.77;;;29.60;40.00;;;;;;2311095;54;20931;-74
2022/07/05 12:42:34;;;;;;;3.10;0.70;;;29.60;40.00;;;;;;2375961;54;21478;-74
2022/07/05 12:45:20;;;;;;;1.73;0.60;;;29.70;39.40;;;;;;2336149;55;21739;-73
2022/07/05 12:47:56;;;;;;;1.87;0.77;;;29.70;39.20;;;;;;2348258;54;21463;-75
2022/07/05 12:50:29;;;;;;;2.15;0.75;;;29.80;38.70;;;;;;2310192;54;20978;-71
2022/07/05 12:58:01;;;;;;;2.22;0.70;;;29.80;39.40;;;;;;2309364;54;20929;-71
2022/07/05 13:00:31;;;;;;;1.58;0.60;;;29.80;39.00;;;;;;2319677;54;20970;-71
2022/07/05 13:02:57;;;;;;;1.67;0.50;;;29.90;38.90;;;;;;2311095;54;21075;-73
2022/07/05 13:05:26;;;;;;;3.37;0.70;;;29.90;38.60;;;;;;2550032;54;20933;-73
2022/07/05 13:07:54;;;;;;;2.05;0.50;;;29.90;38.40;;;;;;2311112;54;20949;-71
2022/07/05 13:10:22;;;;;;;1.95;0.50;;;30.00;38.50;;;;;;2325533;54;20984;-74
2022/07/05 13:12:48;;;;;;;2.28;0.75;;;30.00;38.40;;;;;;2315588;54;21699;-71